createdAt,value
2024-04-30T00:00:31.260Z,101850.47
2024-04-30T00:02:59.117Z,101856.91
2024-04-30T00:05:26.385Z,101855.19
2024-04-30T00:07:53.618Z,101859.63
2024-04-30T00:10:20.876Z,101858.63
2024-04-30T00:12:48.097Z,101854.19
2024-04-30T00:15:17.899Z,101862.63
2024-04-30T00:17:45.454Z,101856.44
2024-04-30T00:20:12.917Z,101846.56
2024-04-30T00:22:40.205Z,101850.56
2024-04-30T00:25:07.462Z,101852.53
2024-04-30T00:27:34.682Z,101847.50
2024-04-30T00:30:02.366Z,101846.78
2024-04-30T00:32:30.208Z,101840.75
2024-04-30T00:34:58.115Z,101827.28
2024-04-30T00:37:25.435Z,101831.00
2024-04-30T00:39:52.659Z,101831.13
2024-04-30T00:42:19.893Z,101822.13
2024-04-30T00:44:47.108Z,101823.97
2024-04-30T00:47:14.692Z,101827.69
2024-04-30T00:49:42.690Z,101818.69
2024-04-30T00:52:10.347Z,101821.53
2024-04-30T00:54:37.576Z,101824.25
2024-04-30T00:57:05.052Z,101841.56
2024-04-30T00:59:32.336Z,101834.38
2024-04-30T01:02:00.103Z,101836.13
2024-04-30T01:04:27.682Z,101828.97
2024-04-30T01:06:55.088Z,101826.38
2024-04-30T01:09:22.265Z,101820.06
2024-04-30T01:11:49.690Z,101836.25
2024-04-30T01:14:17.658Z,101833.41
2024-04-30T01:16:44.843Z,101836.97
2024-04-30T01:19:12.124Z,101835.97
2024-04-30T01:21:39.654Z,101832.66
2024-04-30T01:24:07.096Z,101833.78
2024-04-30T01:26:34.335Z,101834.06
2024-04-30T01:29:01.975Z,101827.16
2024-04-30T01:31:30.028Z,101820.28
2024-04-30T01:33:57.321Z,101822.50
2024-04-30T01:36:24.513Z,101821.63
2024-04-30T01:38:51.722Z,101823.34
2024-04-30T01:41:19.354Z,101825.84
2024-04-30T01:43:46.612Z,101829.28
2024-04-30T01:46:13.823Z,101835.59
2024-04-30T01:48:41.150Z,101825.72
2024-04-30T01:51:08.495Z,101822.34
2024-04-30T01:53:35.741Z,101821.63
2024-04-30T01:56:03.494Z,101822.75
2024-04-30T01:58:30.842Z,101819.19
2024-04-30T02:00:58.196Z,101811.28
2024-04-30T02:03:25.477Z,101806.13
2024-04-30T02:05:52.702Z,101806.38
2024-04-30T02:08:19.954Z,101801.81
2024-04-30T02:10:47.300Z,101796.63
2024-04-30T02:13:14.740Z,101802.91
2024-04-30T02:15:42.014Z,101813.53
2024-04-30T02:18:09.461Z,101815.13
2024-04-30T02:20:36.752Z,101821.03
2024-04-30T02:23:04.205Z,101821.63
2024-04-30T02:25:31.600Z,101825.84
2024-04-30T02:27:59.428Z,101827.44
2024-04-30T02:30:45.276Z,101825.72
2024-04-30T02:33:35.657Z,101818.66
2024-04-30T02:36:04.430Z,101821.91
2024-04-30T02:38:31.979Z,101813.16
2024-04-30T02:40:59.943Z,101806.97
2024-04-30T02:43:27.237Z,101814.41
2024-04-30T02:45:54.512Z,101803.78
2024-04-30T02:48:21.872Z,101803.78
2024-04-30T02:50:49.076Z,101811.06
2024-04-30T02:53:17.074Z,101808.59
2024-04-30T02:55:44.265Z,101808.88
2024-04-30T02:58:11.485Z,101802.84
2024-04-30T03:00:38.782Z,101796.81
2024-04-30T03:03:06.104Z,101799.53
2024-04-30T03:05:33.564Z,101801.09
2024-04-30T03:08:00.817Z,101789.50
2024-04-30T03:10:28.469Z,101785.22
2024-04-30T03:12:55.727Z,101794.22
2024-04-30T03:15:22.977Z,101785.22
2024-04-30T03:17:51.262Z,101795.22
2024-04-30T03:20:18.713Z,101785.22
2024-04-30T03:22:49.274Z,101785.22
2024-04-30T03:25:17.215Z,101785.47
2024-04-30T03:27:44.909Z,101789.03
2024-04-30T03:30:12.357Z,101784.47
2024-04-30T03:32:39.746Z,101777.19
2024-04-30T03:35:07.190Z,101785.22
2024-04-30T03:37:34.489Z,101777.78
2024-04-30T03:40:02.414Z,101778.66
2024-04-30T03:42:29.982Z,101775.94
2024-04-30T03:44:57.170Z,101778.66
2024-04-30T03:47:24.432Z,101776.78
2024-04-30T03:49:51.648Z,101775.94
2024-04-30T03:52:18.953Z,101772.63
2024-04-30T03:54:46.171Z,101761.03
2024-04-30T03:57:13.369Z,101761.41
2024-04-30T03:59:40.570Z,101763.53
2024-04-30T04:02:07.759Z,101767.25
2024-04-30T04:04:37.725Z,101752.69
2024-04-30T04:07:05.441Z,101749.97
2024-04-30T04:09:32.798Z,101760.94
2024-04-30T04:12:19.081Z,101760.69
2024-04-30T04:14:50.211Z,101768.56
2024-04-30T04:17:19.077Z,101768.44
2024-04-30T04:19:48.211Z,101773.47
2024-04-30T04:22:16.005Z,101778.78
2024-04-30T04:24:43.307Z,101771.50
2024-04-30T04:27:10.540Z,101772.34
2024-04-30T04:29:37.759Z,101775.34
2024-04-30T04:32:05.264Z,101777.72
2024-04-30T04:34:32.568Z,101771.81
2024-04-30T04:37:00.011Z,101758.03
2024-04-30T04:39:27.273Z,101755.97
2024-04-30T04:41:54.559Z,101767.34
2024-04-30T04:44:21.794Z,101772.91
2024-04-30T04:46:49.135Z,101771.91
2024-04-30T04:49:19.525Z,101770.19
2024-04-30T04:51:46.952Z,101771.44
2024-04-30T04:54:14.170Z,101761.78
2024-04-30T04:56:41.461Z,101757.47
2024-04-30T04:59:08.747Z,101743.31
2024-04-30T05:01:35.984Z,101744.69
2024-04-30T05:04:04.990Z,101759.00
2024-04-30T05:06:32.547Z,101758.84
2024-04-30T05:08:59.908Z,101763.16
2024-04-30T05:11:27.460Z,101766.63
2024-04-30T05:13:54.703Z,101760.31
2024-04-30T05:16:21.958Z,101763.91
2024-04-30T05:18:49.384Z,101767.59
2024-04-30T05:21:17.113Z,101771.06
2024-04-30T05:23:44.294Z,101779.66
2024-04-30T05:26:11.537Z,101775.00
2024-04-30T05:28:38.940Z,101768.94
2024-04-30T05:31:06.282Z,101763.91
2024-04-30T05:33:33.926Z,101764.63
2024-04-30T05:36:01.250Z,101768.22
2024-04-30T05:38:29.434Z,101768.09
2024-04-30T05:40:56.642Z,101764.25
2024-04-30T05:43:23.907Z,101762.31
2024-04-30T05:45:51.154Z,101775.88
2024-04-30T05:48:18.372Z,101775.63
2024-04-30T05:50:45.593Z,101764.38
2024-04-30T05:53:12.818Z,101769.66
2024-04-30T05:55:40.322Z,101767.81
2024-04-30T05:58:07.840Z,101764.84
2024-04-30T06:00:35.223Z,101752.84
2024-04-30T06:03:03.999Z,101743.59
2024-04-30T06:05:32.050Z,101745.31
2024-04-30T06:07:59.434Z,101743.47
2024-04-30T06:10:26.803Z,101744.94
2024-04-30T06:12:54.030Z,101747.13
2024-04-30T06:15:21.656Z,101743.00
2024-04-30T06:17:48.970Z,101741.03
2024-04-30T06:20:19.180Z,101740.28
2024-04-30T06:22:46.512Z,101737.72
2024-04-30T06:25:13.759Z,101739.31
2024-04-30T06:27:40.985Z,101736.31
2024-04-30T06:30:10.868Z,101735.31
2024-04-30T06:32:38.143Z,101731.03
2024-04-30T06:35:05.846Z,101734.88
2024-04-30T06:37:33.661Z,101728.56
2024-04-30T06:40:00.977Z,101726.25
2024-04-30T06:42:28.339Z,101731.81
2024-04-30T06:44:55.542Z,101743.00
2024-04-30T06:47:22.835Z,101740.50
2024-04-30T06:49:50.461Z,101749.09
2024-04-30T06:52:17.964Z,101749.56
2024-04-30T06:54:45.176Z,101747.22
2024-04-30T06:57:12.366Z,101735.94
2024-04-30T06:59:39.584Z,101732.97
2024-04-30T07:02:06.763Z,101746.03
2024-04-30T07:04:34.112Z,101745.97
2024-04-30T07:07:01.898Z,101736.84
2024-04-30T07:09:29.357Z,101720.88
2024-04-30T07:11:56.604Z,101719.72
2024-04-30T07:14:23.826Z,101723.75
2024-04-30T07:16:56.853Z,101720.34
2024-04-30T07:19:30.387Z,101725.38
2024-04-30T07:21:57.918Z,101722.50
2024-04-30T07:24:25.454Z,101721.25
2024-04-30T07:26:54.075Z,101717.09
2024-04-30T07:29:21.268Z,101714.69
2024-04-30T07:31:48.525Z,101717.28
2024-04-30T07:34:16.043Z,101720.72
2024-04-30T07:36:43.451Z,101717.47
2024-04-30T07:39:10.649Z,101708.78
2024-04-30T07:41:37.858Z,101720.81
2024-04-30T07:44:05.157Z,101721.41
2024-04-30T07:46:32.912Z,101718.25
2024-04-30T07:49:00.247Z,101726.56
2024-04-30T07:51:27.435Z,101729.00
2024-04-30T07:53:54.753Z,101723.72
2024-04-30T07:56:22.213Z,101726.03
2024-04-30T07:58:49.504Z,101717.56
2024-04-30T08:01:19.789Z,101723.13
2024-04-30T08:03:48.365Z,101715.31
2024-04-30T08:06:20.511Z,101712.94
2024-04-30T08:08:48.500Z,101719.09
2024-04-30T08:11:16.199Z,101724.69
2024-04-30T08:13:45.287Z,101719.13
2024-04-30T08:16:13.246Z,101721.78
2024-04-30T08:18:40.761Z,101717.19
2024-04-30T08:21:08.595Z,101717.91
2024-04-30T08:23:35.956Z,101712.81
2024-04-30T08:26:03.559Z,101700.97
2024-04-30T08:28:30.768Z,101700.72
2024-04-30T08:30:59.400Z,101701.34
2024-04-30T08:33:26.995Z,101700.81
2024-04-30T08:35:54.371Z,101690.75
2024-04-30T08:38:21.618Z,101692.13
2024-04-30T08:40:48.966Z,101688.25
2024-04-30T08:43:17.612Z,101684.50
2024-04-30T08:45:46.366Z,101688.25
2024-04-30T08:48:14.974Z,101683.47
2024-04-30T08:50:44.339Z,101683.88
2024-04-30T08:53:14.059Z,101674.19
2024-04-30T08:55:43.229Z,101673.88
2024-04-30T08:58:10.558Z,101671.53
2024-04-30T09:00:37.828Z,101676.66
2024-04-30T09:03:05.602Z,101671.63
2024-04-30T09:05:34.121Z,101662.09
2024-04-30T09:08:03.287Z,101666.91
2024-04-30T09:10:35.020Z,101659.78
2024-04-30T09:13:03.051Z,101656.09
2024-04-30T09:15:30.476Z,101662.66
2024-04-30T09:18:08.371Z,101665.47
2024-04-30T09:20:46.614Z,101663.78
2024-04-30T09:23:13.896Z,101669.13
2024-04-30T09:25:41.187Z,101673.78
2024-04-30T09:28:17.993Z,101675.50
2024-04-30T09:30:58.710Z,101668.69
2024-04-30T09:33:27.234Z,101667.50
2024-04-30T09:36:06.100Z,101668.25
2024-04-30T09:38:38.995Z,101659.69
2024-04-30T09:41:11.767Z,101667.75
2024-04-30T09:43:42.691Z,101664.69
2024-04-30T09:46:10.214Z,101659.03
2024-04-30T09:48:40.292Z,101664.34
2024-04-30T09:51:08.168Z,101656.66
2024-04-30T09:53:37.741Z,101648.13
2024-04-30T09:56:10.258Z,101650.19
2024-04-30T09:58:40.214Z,101645.81
2024-04-30T10:01:11.693Z,101649.44
2024-04-30T10:03:41.446Z,101652.19
2024-04-30T10:06:10.718Z,101647.75
2024-04-30T10:08:41.026Z,101643.28
2024-04-30T10:11:08.601Z,101647.56
2024-04-30T10:13:36.328Z,101645.34
2024-04-30T10:16:14.652Z,101641.78
2024-04-30T10:18:42.435Z,101627.41
2024-04-30T10:21:10.827Z,101631.03
2024-04-30T10:23:43.754Z,101632.94
2024-04-30T10:26:11.542Z,101636.19
2024-04-30T10:28:39.987Z,101624.56
2024-04-30T10:31:19.972Z,101630.22
2024-04-30T10:33:47.397Z,101634.34
2024-04-30T10:36:16.118Z,101626.66
2024-04-30T10:38:43.591Z,101620.47
2024-04-30T10:41:11.515Z,101623.72
2024-04-30T10:43:38.903Z,101613.28
2024-04-30T10:46:17.622Z,101620.31
2024-04-30T10:48:52.431Z,101614.47
2024-04-30T10:51:20.538Z,101606.75
2024-04-30T10:53:49.527Z,101597.34
2024-04-30T10:56:19.950Z,101601.44
2024-04-30T10:58:54.774Z,101595.25
2024-04-30T11:01:33.200Z,101590.28
2024-04-30T11:04:11.622Z,101581.38
2024-04-30T11:06:42.435Z,101587.84
2024-04-30T11:09:12.324Z,101580.00
2024-04-30T11:11:51.321Z,101581.84
2024-04-30T11:14:20.042Z,101569.81
2024-04-30T11:16:48.433Z,101569.16
2024-04-30T11:19:16.141Z,101565.19
2024-04-30T11:21:43.744Z,101569.78
2024-04-30T11:24:11.365Z,101562.72
2024-04-30T11:26:38.773Z,101571.94
2024-04-30T11:29:22.863Z,101572.09
2024-04-30T11:31:53.280Z,101569.47
2024-04-30T11:34:20.594Z,101568.81
2024-04-30T11:36:47.857Z,101555.94
2024-04-30T11:39:15.574Z,101547.53
2024-04-30T11:41:48.928Z,101553.50
2024-04-30T11:44:24.285Z,101569.41
2024-04-30T11:46:51.522Z,101558.31
2024-04-30T11:49:18.759Z,101550.34
2024-04-30T11:51:45.985Z,101549.25
2024-04-30T11:54:13.179Z,101543.69
2024-04-30T11:56:40.423Z,101524.75
2024-04-30T11:59:07.677Z,101522.00
2024-04-30T12:01:34.942Z,101526.81
2024-04-30T12:04:02.143Z,101530.81
2024-04-30T12:06:29.594Z,101516.69
2024-04-30T12:08:56.820Z,101509.97
2024-04-30T12:11:24.071Z,101507.88
2024-04-30T12:13:52.423Z,101507.16
2024-04-30T12:16:19.778Z,101497.63
2024-04-30T12:18:47.252Z,101485.13
2024-04-30T12:21:14.479Z,101490.84
2024-04-30T12:23:41.723Z,101498.13
2024-04-30T12:26:08.977Z,101493.78
2024-04-30T12:28:36.243Z,101495.38
2024-04-30T12:31:03.801Z,101490.63
2024-04-30T12:33:31.190Z,101486.09
2024-04-30T12:35:59.486Z,101484.94
2024-04-30T12:38:26.864Z,101486.25
2024-04-30T12:40:54.091Z,101481.03
2024-04-30T12:43:21.354Z,101475.78
2024-04-30T12:45:48.709Z,101469.91
2024-04-30T12:48:16.023Z,101461.91
2024-04-30T12:50:43.260Z,101466.28
2024-04-30T12:53:10.668Z,101458.09
2024-04-30T12:55:38.042Z,101456.00
2024-04-30T12:58:05.370Z,101456.91
2024-04-30T13:00:33.151Z,101452.81
2024-04-30T13:03:00.505Z,101455.66
2024-04-30T13:05:28.257Z,101458.94
2024-04-30T13:07:55.556Z,101460.25
2024-04-30T13:10:22.853Z,101451.13
2024-04-30T13:12:50.055Z,101451.56
2024-04-30T13:15:17.829Z,101436.31
2024-04-30T13:17:45.104Z,101430.53
2024-04-30T13:20:12.398Z,101427.13
2024-04-30T13:22:39.608Z,101427.34
2024-04-30T13:25:06.994Z,101429.63
2024-04-30T13:27:34.317Z,101421.16
2024-04-30T13:30:01.919Z,101425.88
2024-04-30T13:32:32.413Z,101416.09
2024-04-30T13:35:00.117Z,101416.06
2024-04-30T13:37:27.396Z,101411.81
2024-04-30T13:39:54.896Z,101418.41
2024-04-30T13:42:22.311Z,101410.00
2024-04-30T13:44:50.172Z,101408.59
2024-04-30T13:47:18.203Z,101400.78
2024-04-30T13:49:47.616Z,101402.09
2024-04-30T13:52:15.520Z,101396.31
2024-04-30T13:54:42.970Z,101393.31
2024-04-30T13:57:10.206Z,101392.03
2024-04-30T13:59:37.619Z,101391.16
2024-04-30T14:02:07.272Z,101386.72
2024-04-30T14:04:36.151Z,101384.75
2024-04-30T14:07:03.885Z,101387.47
2024-04-30T14:09:34.252Z,101390.63
2024-04-30T14:12:02.887Z,101389.72
2024-04-30T14:14:30.333Z,101378.44
2024-04-30T14:16:57.582Z,101381.97
2024-04-30T14:19:24.945Z,101384.72
2024-04-30T14:21:52.303Z,101388.00
2024-04-30T14:24:20.000Z,101386.22
2024-04-30T14:26:47.706Z,101386.09
2024-04-30T14:29:17.288Z,101378.94
2024-04-30T14:31:45.393Z,101378.34
2024-04-30T14:34:12.812Z,101367.72
2024-04-30T14:36:43.991Z,101375.97
2024-04-30T14:39:12.290Z,101382.53
2024-04-30T14:41:41.747Z,101375.09
2024-04-30T14:44:09.169Z,101364.22
2024-04-30T14:46:36.698Z,101356.75
2024-04-30T14:49:04.134Z,101354.16
2024-04-30T14:51:41.444Z,101361.13
2024-04-30T14:54:09.086Z,101350.50
2024-04-30T14:56:37.517Z,101353.06
2024-04-30T14:59:04.887Z,101342.50
2024-04-30T15:01:32.147Z,101348.69
2024-04-30T15:04:00.091Z,101345.78
2024-04-30T15:06:29.683Z,101340.31
2024-04-30T15:08:56.977Z,101340.53
2024-04-30T15:11:25.635Z,101336.91
2024-04-30T15:13:53.464Z,101342.81
2024-04-30T15:16:21.442Z,101337.72
2024-04-30T15:18:49.089Z,101332.63
2024-04-30T15:21:17.139Z,101329.47
2024-04-30T15:23:45.839Z,101334.31
2024-04-30T15:26:15.923Z,101326.25
2024-04-30T15:28:43.780Z,101333.66
2024-04-30T15:31:21.604Z,101322.00
2024-04-30T15:33:49.261Z,101332.22
2024-04-30T15:36:17.170Z,101330.50
2024-04-30T15:38:46.563Z,101329.66
2024-04-30T15:41:23.502Z,101324.16
2024-04-30T15:43:51.386Z,101316.97
2024-04-30T15:46:18.967Z,101308.72
2024-04-30T15:48:46.359Z,101317.59
2024-04-30T15:51:14.288Z,101314.78
2024-04-30T15:53:41.645Z,101313.34
2024-04-30T15:56:19.536Z,101305.31
2024-04-30T15:58:48.266Z,101304.47
2024-04-30T16:01:16.619Z,101316.75
2024-04-30T16:03:44.822Z,101303.38
2024-04-30T16:06:12.449Z,101301.47
2024-04-30T16:08:39.756Z,101293.66
2024-04-30T16:11:10.243Z,101292.59
2024-04-30T16:13:40.207Z,101290.47
2024-04-30T16:16:16.105Z,101296.44
2024-04-30T16:18:47.583Z,101301.09
2024-04-30T16:21:15.980Z,101291.53
2024-04-30T16:23:44.344Z,101293.19
2024-04-30T16:26:11.848Z,101287.44
2024-04-30T16:28:44.294Z,101285.75
2024-04-30T16:31:12.178Z,101288.50
2024-04-30T16:33:39.843Z,101278.34
2024-04-30T16:36:07.981Z,101279.84
2024-04-30T16:38:35.210Z,101283.88
2024-04-30T16:41:04.002Z,101288.13
2024-04-30T16:43:31.197Z,101275.38
2024-04-30T16:45:58.678Z,101276.63
2024-04-30T16:48:27.502Z,101270.72
2024-04-30T16:50:54.792Z,101273.28
2024-04-30T16:53:22.004Z,101263.31
2024-04-30T16:55:49.176Z,101265.22
2024-04-30T16:58:17.115Z,101260.97
2024-04-30T17:00:47.266Z,101258.41
2024-04-30T17:03:14.720Z,101253.09
2024-04-30T17:05:41.975Z,101249.91
2024-04-30T17:08:09.278Z,101250.97
2024-04-30T17:10:36.479Z,101248.19
2024-04-30T17:13:04.208Z,101244.41
2024-04-30T17:15:32.172Z,101245.03
2024-04-30T17:18:02.302Z,101235.06
2024-04-30T17:20:29.780Z,101237.19
2024-04-30T17:22:57.132Z,101236.34
2024-04-30T17:25:24.315Z,101242.69
2024-04-30T17:27:51.742Z,101245.44
2024-04-30T17:30:19.092Z,101234.84
2024-04-30T17:32:46.497Z,101239.50
2024-04-30T17:35:13.918Z,101235.25
2024-04-30T17:37:41.129Z,101234.78
2024-04-30T17:40:09.047Z,101232.22
2024-04-30T17:42:37.732Z,101235.38
2024-04-30T17:45:05.426Z,101222.88
2024-04-30T17:47:35.945Z,101228.56
2024-04-30T17:50:04.330Z,101220.91
2024-04-30T17:52:33.789Z,101229.78
2024-04-30T17:55:01.513Z,101225.53
2024-04-30T17:57:29.355Z,101230.59
2024-04-30T17:59:56.611Z,101229.09
2024-04-30T18:02:23.874Z,101216.59
2024-04-30T18:04:51.159Z,101231.75
2024-04-30T18:07:18.425Z,101225.59
2024-04-30T18:09:45.644Z,101235.97
2024-04-30T18:12:12.878Z,101231.91
2024-04-30T18:14:40.124Z,101233.38
2024-04-30T18:17:07.705Z,101236.53
2024-04-30T18:19:35.145Z,101229.50
2024-04-30T18:22:02.463Z,101228.22
2024-04-30T18:24:30.061Z,101239.41
2024-04-30T18:26:57.274Z,101234.50
2024-04-30T18:29:24.525Z,101237.81
2024-04-30T18:31:53.094Z,101242.88
2024-04-30T18:34:20.442Z,101234.56
2024-04-30T18:36:47.913Z,101245.94
2024-04-30T18:39:18.816Z,101241.25
2024-04-30T18:41:46.189Z,101243.94
2024-04-30T18:44:13.636Z,101239.22
2024-04-30T18:46:41.045Z,101235.34
2024-04-30T18:49:11.241Z,101247.56
2024-04-30T18:51:41.446Z,101240.56
2024-04-30T18:54:09.213Z,101237.53
2024-04-30T18:56:40.499Z,101234.53
2024-04-30T18:59:07.815Z,101234.44
2024-04-30T19:01:35.720Z,101234.19
2024-04-30T19:04:04.531Z,101234.06
2024-04-30T19:06:32.752Z,101233.59
2024-04-30T19:09:00.048Z,101236.94
2024-04-30T19:11:27.855Z,101224.81
2024-04-30T19:13:55.091Z,101229.84
2024-04-30T19:16:22.314Z,101233.16
2024-04-30T19:18:49.677Z,101223.81
2024-04-30T19:21:18.632Z,101224.38
2024-04-30T19:23:46.071Z,101223.91
2024-04-30T19:26:14.994Z,101227.22
2024-04-30T19:28:44.108Z,101225.88
2024-04-30T19:31:21.497Z,101229.38
2024-04-30T19:33:49.335Z,101229.97
2024-04-30T19:36:21.360Z,101226.28
2024-04-30T19:38:49.332Z,101234.38
2024-04-30T19:41:17.798Z,101228.78
2024-04-30T19:43:45.030Z,101223.22
2024-04-30T19:46:13.511Z,101226.88
2024-04-30T19:48:41.218Z,101236.91
2024-04-30T19:51:08.542Z,101235.09
2024-04-30T19:53:35.789Z,101236.69
2024-04-30T19:56:03.249Z,101230.22
2024-04-30T19:58:30.631Z,101228.22
2024-04-30T20:00:57.947Z,101232.38
2024-04-30T20:03:25.488Z,101231.03
2024-04-30T20:05:52.721Z,101233.28
2024-04-30T20:08:19.959Z,101231.97
2024-04-30T20:10:47.211Z,101229.38
2024-04-30T20:13:14.502Z,101229.75
2024-04-30T20:15:41.890Z,101228.22
2024-04-30T20:18:09.260Z,101232.19
2024-04-30T20:20:36.483Z,101226.22
2024-04-30T20:23:04.112Z,101230.00
2024-04-30T20:25:31.319Z,101220.25
2024-04-30T20:27:58.953Z,101219.56
2024-04-30T20:30:26.187Z,101215.13
2024-04-30T20:32:53.517Z,101218.91
2024-04-30T20:35:20.757Z,101231.94
2024-04-30T20:37:48.002Z,101239.50
2024-04-30T20:40:15.929Z,101232.31
2024-04-30T20:42:43.194Z,101218.59
2024-04-30T20:45:10.585Z,101212.09
2024-04-30T20:47:37.844Z,101226.63
2024-04-30T20:50:05.260Z,101212.94
2024-04-30T20:52:32.447Z,101217.38
2024-04-30T20:54:59.720Z,101208.13
2024-04-30T20:57:26.969Z,101210.88
2024-04-30T20:59:54.157Z,101211.72
2024-04-30T21:02:22.694Z,101210.69
2024-04-30T21:04:50.004Z,101196.13
2024-04-30T21:07:17.828Z,101196.78
2024-04-30T21:09:46.364Z,101199.53
2024-04-30T21:12:13.610Z,101200.38
2024-04-30T21:14:40.825Z,101197.84
2024-04-30T21:17:08.055Z,101187.25
2024-04-30T21:19:35.380Z,101194.13
2024-04-30T21:22:03.593Z,101192.13
2024-04-30T21:24:30.996Z,101195.78
2024-04-30T21:26:58.209Z,101191.38
2024-04-30T21:29:25.965Z,101196.53
2024-04-30T21:31:53.301Z,101188.34
2024-04-30T21:34:20.735Z,101188.06
2024-04-30T21:36:48.443Z,101193.72
2024-04-30T21:39:17.333Z,101181.13
2024-04-30T21:41:45.817Z,101177.75
2024-04-30T21:44:13.023Z,101175.06
2024-04-30T21:46:41.421Z,101169.63
2024-04-30T21:49:08.956Z,101177.69
2024-04-30T21:51:36.315Z,101180.97
2024-04-30T21:54:06.585Z,101182.13
2024-04-30T21:56:34.340Z,101186.25
2024-04-30T21:59:01.569Z,101186.78
2024-04-30T22:01:29.261Z,101200.63
2024-04-30T22:03:56.690Z,101195.34
2024-04-30T22:06:23.989Z,101198.25
2024-04-30T22:08:51.585Z,101192.09
2024-04-30T22:11:19.295Z,101199.47
2024-04-30T22:13:46.549Z,101195.38
2024-04-30T22:16:13.865Z,101191.94
2024-04-30T22:18:41.331Z,101191.28
2024-04-30T22:21:10.975Z,101182.53
2024-04-30T22:23:39.396Z,101185.63
2024-04-30T22:26:07.638Z,101185.13
2024-04-30T22:28:35.127Z,101180.19
2024-04-30T22:31:04.877Z,101178.66
2024-04-30T22:33:32.415Z,101177.78
2024-04-30T22:35:59.956Z,101171.47
2024-04-30T22:38:27.151Z,101165.16
2024-04-30T22:40:56.137Z,101156.09
2024-04-30T22:43:23.447Z,101155.41
2024-04-30T22:45:50.841Z,101155.59
2024-04-30T22:48:18.305Z,101152.84
2024-04-30T22:50:45.548Z,101149.94
2024-04-30T22:53:12.739Z,101145.31
2024-04-30T22:55:39.971Z,101148.38
2024-04-30T22:58:07.264Z,101147.00
2024-04-30T23:00:34.563Z,101144.59
2024-04-30T23:03:02.313Z,101144.06
2024-04-30T23:05:30.358Z,101141.00
2024-04-30T23:07:57.830Z,101140.47
2024-04-30T23:10:25.040Z,101147.31
2024-04-30T23:12:52.339Z,101137.91
2024-04-30T23:15:19.749Z,101137.72
2024-04-30T23:17:47.168Z,101139.25
2024-04-30T23:20:14.410Z,101148.31
2024-04-30T23:22:41.695Z,101136.16
2024-04-30T23:25:09.103Z,101142.13
2024-04-30T23:27:36.529Z,101128.97
2024-04-30T23:30:04.184Z,101128.44
2024-04-30T23:32:31.395Z,101119.88
2024-04-30T23:35:00.613Z,101121.22
2024-04-30T23:37:28.018Z,101114.34
2024-04-30T23:39:55.569Z,101106.81
2024-04-30T23:42:23.798Z,101108.88
2024-04-30T23:44:51.234Z,101108.91
2024-04-30T23:47:18.540Z,101109.81
2024-04-30T23:49:45.759Z,101108.28
2024-04-30T23:52:13.001Z,101099.47
2024-04-30T23:54:40.212Z,101095.03
2024-04-30T23:57:07.432Z,101098.47
2024-04-30T23:59:34.626Z,101098.31
